createdAt,value
2019-02-15T00:01:34.718Z,14.57
2019-02-15T00:05:42.499Z,14.90
2019-02-15T00:09:50.739Z,15.13
2019-02-15T00:13:58.992Z,14.33
2019-02-15T00:18:24.198Z,16.80
2019-02-15T00:22:32.454Z,17.77
2019-02-15T00:26:40.872Z,19.03
2019-02-15T00:30:48.565Z,17.27
2019-02-15T00:34:57.383Z,18.07
2019-02-15T00:39:06.335Z,17.30
2019-02-15T00:43:22.070Z,14.47
2019-02-15T00:47:46.634Z,17.50
2019-02-15T00:52:05.486Z,16.80
2019-02-15T00:56:41.839Z,14.97
2019-02-15T01:01:08.883Z,14.07
2019-02-15T01:05:44.658Z,12.87
2019-02-15T01:10:00.492Z,15.47
2019-02-15T01:14:08.209Z,12.03
2019-02-15T01:18:16.252Z,10.67
2019-02-15T01:22:24.379Z,14.20
2019-02-15T01:26:56.959Z,11.93
2019-02-15T01:31:21.498Z,11.83
2019-02-15T01:36:03.946Z,12.50
2019-02-15T01:40:23.033Z,16.47
2019-02-15T01:44:49.830Z,14.87
2019-02-15T01:48:57.602Z,16.97
2019-02-15T01:53:06.148Z,14.70
2019-02-15T01:57:13.922Z,16.13
2019-02-15T02:01:24.491Z,16.90
2019-02-15T02:05:32.681Z,20.47
2019-02-15T02:09:41.996Z,18.57
2019-02-15T02:13:50.140Z,17.60
2019-02-15T02:17:58.326Z,18.73
2019-02-15T02:22:06.213Z,18.50
2019-02-15T02:26:14.156Z,20.57
2019-02-15T02:30:22.475Z,19.07
2019-02-15T02:34:29.903Z,19.10
2019-02-15T02:38:38.134Z,19.33
2019-02-15T02:42:45.891Z,18.87
2019-02-15T02:46:54.209Z,18.93
2019-02-15T02:51:02.251Z,19.87
2019-02-15T02:55:10.556Z,21.27
2019-02-15T02:59:18.649Z,21.37
2019-02-15T03:03:26.897Z,22.10
2019-02-15T03:07:35.204Z,22.00
2019-02-15T03:11:42.917Z,19.97
2019-02-15T03:15:51.055Z,17.30
2019-02-15T03:19:58.837Z,18.10
2019-02-15T03:24:06.687Z,19.27
2019-02-15T03:28:15.290Z,20.70
2019-02-15T03:32:22.890Z,20.33
2019-02-15T03:36:52.433Z,23.33
2019-02-15T03:41:03.108Z,21.87
2019-02-15T03:45:11.009Z,25.10
2019-02-15T03:49:19.211Z,23.30
2019-02-15T03:53:27.431Z,23.77
2019-02-15T03:57:35.145Z,22.93
2019-02-15T04:01:43.779Z,24.20
2019-02-15T04:05:51.502Z,25.47
2019-02-15T04:09:59.287Z,27.57
2019-02-15T04:14:07.501Z,27.57
2019-02-15T04:18:15.308Z,29.27
2019-02-15T04:22:22.907Z,25.37
2019-02-15T04:26:31.052Z,46.90
2019-02-15T04:30:38.866Z,59.90
2019-02-15T04:34:47.064Z,46.53
2019-02-15T04:38:54.982Z,31.33
2019-02-15T04:43:02.582Z,30.50
2019-02-15T04:47:10.417Z,36.97
2019-02-15T04:51:18.393Z,26.60
2019-02-15T04:55:26.018Z,27.33
2019-02-15T04:59:34.375Z,25.77
2019-02-15T05:03:42.580Z,27.63
2019-02-15T05:07:50.282Z,25.90
2019-02-15T05:11:58.196Z,26.20
2019-02-15T05:16:06.542Z,26.53
2019-02-15T05:20:14.206Z,23.07
2019-02-15T05:24:22.361Z,25.47
2019-02-15T05:28:30.132Z,24.83
2019-02-15T05:32:37.791Z,26.97
2019-02-15T05:36:45.977Z,24.30
2019-02-15T05:40:53.689Z,24.10
2019-02-15T05:45:04.205Z,24.13
2019-02-15T05:49:11.761Z,22.40
2019-02-15T05:53:19.479Z,23.80
2019-02-15T05:57:27.603Z,21.77
2019-02-15T06:01:36.110Z,21.50
2019-02-15T06:05:43.836Z,19.83
2019-02-15T06:09:52.063Z,21.97
2019-02-15T06:14:00.283Z,19.20
2019-02-15T06:18:08.120Z,22.60
2019-02-15T06:22:16.396Z,20.23
2019-02-15T06:26:24.166Z,21.33
2019-02-15T06:30:32.698Z,23.27
2019-02-15T06:34:40.825Z,24.60
2019-02-15T06:38:48.437Z,17.43
2019-02-15T06:42:56.914Z,20.83
2019-02-15T06:47:05.173Z,19.63
2019-02-15T06:51:12.875Z,19.23
2019-02-15T06:55:21.016Z,18.70
2019-02-15T06:59:50.427Z,18.67
2019-02-15T07:04:38.573Z,19.47
2019-02-15T07:08:47.031Z,16.53
2019-02-15T07:12:54.782Z,16.60
2019-02-15T07:17:02.702Z,16.07
2019-02-15T07:21:10.651Z,14.47
2019-02-15T07:25:18.480Z,16.77
2019-02-15T07:29:26.404Z,15.53
2019-02-15T07:33:34.758Z,16.60
2019-02-15T07:37:42.475Z,13.93
2019-02-15T07:41:50.387Z,12.20
2019-02-15T07:45:58.316Z,11.27
2019-02-15T07:50:07.340Z,12.17
2019-02-15T07:54:15.755Z,10.60
2019-02-15T07:58:27.095Z,11.30
2019-02-15T08:02:34.998Z,9.43
2019-02-15T08:06:52.519Z,9.90
2019-02-15T08:11:00.722Z,10.17
2019-02-15T08:15:09.063Z,8.97
2019-02-15T08:19:16.981Z,9.40
2019-02-15T08:23:25.075Z,8.73
2019-02-15T08:27:32.896Z,8.90
2019-02-15T08:31:40.611Z,9.50
2019-02-15T08:35:48.302Z,9.87
2019-02-15T08:39:56.029Z,9.17
2019-02-15T08:44:04.340Z,10.57
2019-02-15T08:48:12.144Z,11.37
2019-02-15T08:52:20.325Z,9.30
2019-02-15T08:56:28.173Z,16.33
2019-02-15T09:00:36.082Z,13.63
2019-02-15T09:04:43.911Z,24.30
2019-02-15T09:08:51.881Z,14.37
2019-02-15T09:12:59.472Z,10.13
2019-02-15T09:17:07.916Z,10.00
2019-02-15T09:21:15.750Z,9.60
2019-02-15T09:25:23.597Z,11.13
2019-02-15T09:29:31.578Z,12.23
2019-02-15T09:33:39.400Z,9.50
2019-02-15T09:37:47.623Z,15.50
2019-02-15T09:41:55.726Z,10.63
2019-02-15T09:46:03.449Z,10.53
2019-02-15T09:50:12.265Z,11.27
2019-02-15T09:54:21.700Z,18.60
2019-02-15T09:58:29.635Z,23.47
2019-02-15T10:02:37.761Z,20.47
2019-02-15T10:06:46.025Z,25.40
2019-02-15T10:10:53.866Z,15.67
2019-02-15T10:15:01.818Z,28.13
2019-02-15T10:19:10.048Z,15.73
2019-02-15T10:23:17.856Z,11.30
2019-02-15T10:27:26.236Z,9.40
2019-02-15T10:31:33.955Z,8.37
2019-02-15T10:35:42.374Z,10.77
2019-02-15T10:39:50.181Z,9.07
2019-02-15T10:43:58.082Z,10.57
2019-02-15T10:48:06.463Z,7.73
2019-02-15T10:52:14.586Z,8.73
2019-02-15T10:56:22.350Z,8.17
2019-02-15T11:00:30.359Z,14.43
2019-02-15T11:04:38.379Z,7.73
2019-02-15T11:08:46.285Z,9.10
2019-02-15T11:12:54.186Z,9.17
2019-02-15T11:17:03.181Z,8.20
2019-02-15T11:21:10.942Z,8.30
2019-02-15T11:25:19.340Z,7.57
2019-02-15T11:29:27.894Z,9.03
2019-02-15T11:33:35.905Z,9.53
2019-02-15T11:37:43.821Z,7.07
2019-02-15T11:41:51.438Z,8.43
2019-02-15T11:45:59.732Z,12.43
2019-02-15T11:50:09.896Z,12.10
2019-02-15T11:54:23.507Z,10.63
2019-02-15T11:58:28.421Z,10.37
2019-02-15T12:02:36.323Z,8.73
2019-02-15T12:06:44.015Z,7.10
2019-02-15T12:10:52.150Z,8.93
2019-02-15T12:15:00.462Z,7.47
2019-02-15T12:19:08.193Z,11.63
2019-02-15T12:23:16.750Z,12.70
2019-02-15T12:27:24.723Z,13.60
2019-02-15T12:31:32.537Z,28.20
2019-02-15T12:35:40.335Z,19.50
2019-02-15T12:39:48.039Z,13.03
2019-02-15T12:43:55.934Z,12.57
2019-02-15T12:48:04.185Z,9.73
2019-02-15T12:52:11.725Z,5.93
2019-02-15T12:56:19.684Z,7.20
2019-02-15T13:00:27.711Z,6.37
2019-02-15T13:04:35.396Z,8.30
2019-02-15T13:08:44.623Z,8.17
2019-02-15T13:12:52.370Z,6.70
2019-02-15T13:17:00.203Z,9.17
2019-02-15T13:21:07.977Z,8.70
2019-02-15T13:25:16.203Z,7.50
2019-02-15T13:29:24.935Z,11.63
2019-02-15T13:33:32.932Z,10.20
2019-02-15T13:37:41.250Z,9.73
2019-02-15T13:41:48.990Z,7.43
2019-02-15T13:45:56.883Z,13.37
2019-02-15T13:50:04.825Z,7.90
2019-02-15T13:54:13.058Z,7.87
2019-02-15T13:58:21.125Z,8.70
2019-02-15T14:02:30.974Z,8.23
2019-02-15T14:06:38.251Z,12.10
2019-02-15T14:10:46.558Z,14.67
2019-02-15T14:14:54.532Z,12.10
2019-02-15T14:19:03.183Z,11.03
2019-02-15T14:23:11.219Z,9.20
2019-02-15T14:27:24.140Z,9.60
2019-02-15T14:31:33.355Z,10.70
2019-02-15T14:35:42.941Z,7.97
2019-02-15T14:39:50.843Z,8.53
2019-02-15T14:43:58.848Z,10.07
2019-02-15T14:48:07.495Z,11.33
2019-02-15T14:52:15.284Z,10.40
2019-02-15T14:56:23.324Z,13.20
2019-02-15T15:00:31.206Z,8.63
2019-02-15T15:04:39.019Z,10.43
2019-02-15T15:08:47.145Z,11.07
2019-02-15T15:12:54.843Z,23.27
2019-02-15T15:17:02.647Z,21.50
2019-02-15T15:21:10.587Z,11.80
2019-02-15T15:25:18.173Z,18.03
2019-02-15T15:29:27.057Z,16.47
2019-02-15T15:33:35.611Z,16.37
2019-02-15T15:37:43.571Z,23.80
2019-02-15T15:41:52.925Z,13.03
2019-02-15T15:46:01.827Z,14.00
2019-02-15T15:50:10.651Z,12.47
2019-02-15T15:54:19.392Z,10.13
2019-02-15T15:58:27.471Z,13.40
2019-02-15T16:02:35.398Z,11.37
2019-02-15T16:06:43.727Z,9.57
2019-02-15T16:10:52.277Z,10.43
2019-02-15T16:15:00.387Z,8.00
2019-02-15T16:19:10.213Z,7.20
2019-02-15T16:23:19.250Z,7.90
2019-02-15T16:27:30.065Z,9.83
2019-02-15T16:31:38.339Z,8.87
2019-02-15T16:35:46.708Z,10.53
2019-02-15T16:39:54.368Z,8.90
2019-02-15T16:44:02.549Z,13.47
2019-02-15T16:48:10.495Z,10.27
2019-02-15T16:52:18.824Z,12.43
2019-02-15T16:56:27.063Z,10.20
2019-02-15T17:00:34.914Z,14.63
2019-02-15T17:04:42.864Z,16.27
2019-02-15T17:08:51.099Z,35.63
2019-02-15T17:12:59.001Z,14.10
2019-02-15T17:17:06.924Z,25.33
2019-02-15T17:21:15.031Z,11.83
2019-02-15T17:25:25.231Z,15.73
2019-02-15T17:29:33.739Z,14.40
2019-02-15T17:33:41.518Z,13.20
2019-02-15T17:37:49.164Z,13.50
2019-02-15T17:41:57.374Z,13.10
2019-02-15T17:46:05.190Z,13.23
2019-02-15T17:50:13.097Z,24.30
2019-02-15T17:54:21.061Z,15.77
2019-02-15T17:58:28.897Z,7.67
2019-02-15T18:02:37.028Z,16.40
2019-02-15T18:06:45.343Z,9.27
2019-02-15T18:10:53.691Z,11.30
2019-02-15T18:15:01.886Z,11.43
2019-02-15T18:19:10.498Z,10.37
2019-02-15T18:23:19.762Z,8.93
2019-02-15T18:27:27.676Z,8.17
2019-02-15T18:31:35.627Z,6.47
2019-02-15T18:35:43.802Z,7.90
2019-02-15T18:39:52.243Z,11.50
2019-02-15T18:44:00.274Z,8.53
2019-02-15T18:48:08.746Z,15.93
2019-02-15T18:52:16.673Z,14.33
2019-02-15T18:56:24.663Z,16.50
2019-02-15T19:00:32.821Z,24.93
2019-02-15T19:04:41.295Z,22.47
2019-02-15T19:08:49.231Z,22.90
2019-02-15T19:12:57.595Z,27.23
2019-02-15T19:17:05.570Z,19.87
2019-02-15T19:21:13.724Z,14.67
2019-02-15T19:25:21.399Z,8.53
2019-02-15T19:29:29.739Z,10.83
2019-02-15T19:33:38.396Z,10.47
2019-02-15T19:37:46.188Z,13.13
2019-02-15T19:41:54.411Z,13.20
2019-02-15T19:46:02.422Z,14.93
2019-02-15T19:50:12.233Z,14.73
2019-02-15T19:54:20.319Z,17.40
2019-02-15T19:58:28.220Z,16.63
2019-02-15T20:02:36.209Z,18.10
2019-02-15T20:06:44.646Z,18.30
2019-02-15T20:10:53.388Z,21.90
2019-02-15T20:15:10.711Z,23.73
2019-02-15T20:19:18.423Z,33.60
2019-02-15T20:23:26.222Z,34.17
2019-02-15T20:27:34.126Z,33.40
2019-02-15T20:31:43.065Z,27.83
2019-02-15T20:35:50.992Z,25.87
2019-02-15T20:40:01.000Z,25.63
2019-02-15T20:44:10.296Z,24.57
2019-02-15T20:48:17.910Z,20.17
2019-02-15T20:52:26.019Z,20.30
2019-02-15T20:56:34.111Z,21.23
2019-02-15T21:00:41.955Z,20.23
2019-02-15T21:04:50.174Z,20.93
2019-02-15T21:08:58.312Z,22.10
2019-02-15T21:13:06.706Z,21.07
2019-02-15T21:17:15.026Z,24.07
2019-02-15T21:21:22.736Z,24.53
2019-02-15T21:25:30.665Z,22.30
2019-02-15T21:29:38.858Z,18.50
2019-02-15T21:33:46.791Z,20.67
2019-02-15T21:37:54.898Z,19.70
2019-02-15T21:42:02.606Z,20.10
2019-02-15T21:46:10.612Z,20.10
2019-02-15T21:50:18.948Z,18.40
2019-02-15T21:54:26.751Z,20.77
2019-02-15T21:58:34.748Z,18.33
2019-02-15T22:02:43.003Z,18.90
2019-02-15T22:06:50.534Z,20.83
2019-02-15T22:10:58.507Z,19.73
2019-02-15T22:15:07.766Z,19.97
2019-02-15T22:19:15.878Z,16.93
2019-02-15T22:23:24.154Z,16.47
2019-02-15T22:27:32.512Z,18.80
2019-02-15T22:31:40.414Z,17.00
2019-02-15T22:35:48.834Z,16.83
2019-02-15T22:39:57.058Z,15.90
2019-02-15T22:44:04.866Z,16.87
2019-02-15T22:48:13.186Z,15.53
2019-02-15T22:52:21.099Z,14.90
2019-02-15T22:56:28.795Z,15.50
2019-02-15T23:00:49.732Z,14.63
2019-02-15T23:04:58.085Z,16.40
2019-02-15T23:09:09.593Z,13.87
2019-02-15T23:13:17.963Z,14.23
2019-02-15T23:17:25.888Z,15.80
2019-02-15T23:21:33.788Z,14.80
2019-02-15T23:25:42.611Z,14.77
2019-02-15T23:29:50.650Z,14.23
2019-02-15T23:33:59.443Z,14.80
2019-02-15T23:38:07.292Z,16.43
2019-02-15T23:42:14.895Z,13.80
2019-02-15T23:46:22.899Z,12.93
2019-02-15T23:50:31.250Z,13.03
2019-02-15T23:54:38.849Z,13.60
2019-02-15T23:58:47.249Z,13.77
